Time;durP1;ratioP1;P1;durP2;ratioP2;P2;SDS_P1;SDS_P2;PMS_P1;PMS_P2;Temp;Humidity;BMP_temperature;BMP_pressure;BME280_temperature;BME280_humidity;BME280_pressure;Samples;Min_cycle;Max_cycle;Signal;HPM_P1;HPM_P2
2023/02/19 00:01:17;;;;;;;9.2;5.3;;;;;;;;;;;;;
2023/02/19 00:03:55;;;;;;;8.2;5.8;;;;;;;;;;;;;
2023/02/19 00:06:09;;;;;;;9.1;5;;;;;;;;;;;;;
2023/02/19 00:08:34;;;;;;;10.4;6.7;;;;;;;;;;;;;
2023/02/19 00:11:01;;;;;;;10.4;6.3;;;;;;;;;;;;;
2023/02/19 00:13:30;;;;;;;10.8;5.8;;;;;;;;;;;;;
2023/02/19 00:15:55;;;;;;;11.2;6.2;;;;;;;;;;;;;
2023/02/19 00:18:21;;;;;;;11.1;6;;;;;;;;;;;;;
2023/02/19 00:20:46;;;;;;;8.2;5.8;;;;;;;;;;;;;
2023/02/19 00:23:13;;;;;;;9.7;6.1;;;;;;;;;;;;;
2023/02/19 00:25:38;;;;;;;10.7;6.4;;;;;;;;;;;;;
2023/02/19 00:28:03;;;;;;;9.8;5.6;;;;;;;;;;;;;
2023/02/19 00:30:37;;;;;;;10.3;6.2;;;;;;;;;;;;;
2023/02/19 00:33:07;;;;;;;6.3;4.3;;;;;;;;;;;;;
2023/02/19 00:35:31;;;;;;;6.2;4.4;;;;;;;;;;;;;
2023/02/19 00:37:56;;;;;;;7.6;4.6;;;;;;;;;;;;;
2023/02/19 00:40:24;;;;;;;9;5.2;;;;;;;;;;;;;
2023/02/19 00:42:47;;;;;;;9.1;5.7;;;;;;;;;;;;;
2023/02/19 00:45:18;;;;;;;8.9;5.4;;;;;;;;;;;;;
2023/02/19 00:47:43;;;;;;;7.6;4.8;;;;;;;;;;;;;
2023/02/19 00:50:09;;;;;;;6.9;4.7;;;;;;;;;;;;;
2023/02/19 00:52:38;;;;;;;9.2;4.7;;;;;;;;;;;;;
2023/02/19 00:55:03;;;;;;;8.6;4.4;;;;;;;;;;;;;
2023/02/19 00:57:30;;;;;;;6.7;4.3;;;;;;;;;;;;;
2023/02/19 00:59:56;;;;;;;6.3;4.3;;;;;;;;;;;;;
2023/02/19 01:02:23;;;;;;;7.7;4.6;;;;;;;;;;;;;
2023/02/19 01:04:48;;;;;;;6.3;4;;;;;;;;;;;;;
2023/02/19 01:07:14;;;;;;;7.1;4.1;;;;;;;;;;;;;
2023/02/19 01:09:40;;;;;;;7.1;3.8;;;;;;;;;;;;;
2023/02/19 01:12:05;;;;;;;5;3.6;;;;;;;;;;;;;
2023/02/19 01:14:30;;;;;;;4.8;3.1;;;;;;;;;;;;;
2023/02/19 01:16:58;;;;;;;4;2.6;;;;;;;;;;;;;
2023/02/19 01:19:23;;;;;;;4.6;2.7;;;;;;;;;;;;;
2023/02/19 01:21:48;;;;;;;3.9;2.6;;;;;;;;;;;;;
2023/02/19 01:24:14;;;;;;;5.4;2.8;;;;;;;;;;;;;
2023/02/19 01:26:40;;;;;;;4;2.5;;;;;;;;;;;;;
2023/02/19 01:29:05;;;;;;;3.7;2.7;;;;;;;;;;;;;
2023/02/19 01:31:31;;;;;;;4;2.4;;;;;;;;;;;;;
2023/02/19 01:34:00;;;;;;;4.1;2.3;;;;;;;;;;;;;
2023/02/19 01:36:25;;;;;;;5;3;;;;;;;;;;;;;
2023/02/19 01:38:51;;;;;;;4.5;2.7;;;;;;;;;;;;;
2023/02/19 01:41:16;;;;;;;5;3;;;;;;;;;;;;;
2023/02/19 01:43:42;;;;;;;4.3;2.7;;;;;;;;;;;;;
2023/02/19 01:46:07;;;;;;;4.1;2.4;;;;;;;;;;;;;
2023/02/19 01:48:36;;;;;;;3.8;2.7;;;;;;;;;;;;;
2023/02/19 01:51:01;;;;;;;4.1;2.4;;;;;;;;;;;;;
2023/02/19 01:53:26;;;;;;;3.4;2.4;;;;;;;;;;;;;
2023/02/19 01:55:51;;;;;;;3.2;2.3;;;;;;;;;;;;;
2023/02/19 01:58:17;;;;;;;2.9;2.4;;;;;;;;;;;;;
2023/02/19 02:00:43;;;;;;;4.6;2.2;;;;;;;;;;;;;
2023/02/19 02:03:08;;;;;;;3.9;2;;;;;;;;;;;;;
2023/02/19 02:05:35;;;;;;;3.6;2.4;;;;;;;;;;;;;
2023/02/19 02:10:25;;;;;;;2.3;2;;;;;;;;;;;;;
2023/02/19 02:12:53;;;;;;;5.1;2.3;;;;;;;;;;;;;
2023/02/19 02:15:18;;;;;;;3.1;2.3;;;;;;;;;;;;;
2023/02/19 02:17:43;;;;;;;2.7;2;;;;;;;;;;;;;
2023/02/19 02:20:08;;;;;;;3.9;2.1;;;;;;;;;;;;;
2023/02/19 02:22:34;;;;;;;2.9;2.2;;;;;;;;;;;;;
2023/02/19 02:24:59;;;;;;;3.1;2.2;;;;;;;;;;;;;
2023/02/19 02:27:24;;;;;;;3.8;2.2;;;;;;;;;;;;;
2023/02/19 02:29:50;;;;;;;2.8;2.3;;;;;;;;;;;;;
2023/02/19 02:32:15;;;;;;;3.1;2;;;;;;;;;;;;;
2023/02/19 02:34:41;;;;;;;2.9;2.1;;;;;;;;;;;;;
2023/02/19 02:37:08;;;;;;;3.4;2.5;;;;;;;;;;;;;
2023/02/19 02:39:31;;;;;;;3.2;2.3;;;;;;;;;;;;;
2023/02/19 02:42:40;;;;;;;3.4;2.3;;;;;;;;;;;;;
2023/02/19 02:44:24;;;;;;;3;2.3;;;;;;;;;;;;;
2023/02/19 02:46:49;;;;;;;2.5;2;;;;;;;;;;;;;
2023/02/19 02:49:14;;;;;;;3.1;2.2;;;;;;;;;;;;;
2023/02/19 02:51:40;;;;;;;2.5;2.2;;;;;;;;;;;;;
2023/02/19 02:56:30;;;;;;;2.8;2;;;;;;;;;;;;;
2023/02/19 02:58:57;;;;;;;2.8;2.1;;;;;;;;;;;;;
2023/02/19 03:03:47;;;;;;;4.2;2.4;;;;;;;;;;;;;
2023/02/19 03:06:12;;;;;;;2.8;2;;;;;;;;;;;;;
2023/02/19 03:08:37;;;;;;;2.5;2.1;;;;;;;;;;;;;
2023/02/19 03:19:17;;;;;;;3.2;2.2;;;;;;;;;;;;;
2023/02/19 03:20:45;;;;;;;3.9;3.3;;;;;;;;;;;;;
2023/02/19 03:23:10;;;;;;;4.2;3;;;;;;;;;;;;;
2023/02/19 03:28:00;;;;;;;2.9;2.4;;;;;;;;;;;;;
2023/02/19 03:30:28;;;;;;;3.8;2.5;;;;;;;;;;;;;
2023/02/19 03:32:53;;;;;;;3.7;3;;;;;;;;;;;;;
2023/02/19 03:35:18;;;;;;;4.5;3.2;;;;;;;;;;;;;
2023/02/19 03:37:43;;;;;;;2.8;2.2;;;;;;;;;;;;;
2023/02/19 03:40:16;;;;;;;3.4;2.2;;;;;;;;;;;;;
2023/02/19 03:42:41;;;;;;;3.1;2.3;;;;;;;;;;;;;
2023/02/19 03:45:09;;;;;;;2.6;1.7;;;;;;;;;;;;;
2023/02/19 03:47:35;;;;;;;2.3;1.9;;;;;;;;;;;;;
2023/02/19 03:50:00;;;;;;;2.4;1.7;;;;;;;;;;;;;
2023/02/19 03:52:25;;;;;;;3;2;;;;;;;;;;;;;
2023/02/19 03:54:50;;;;;;;4.3;1.9;;;;;;;;;;;;;
2023/02/19 03:57:17;;;;;;;2.5;2.1;;;;;;;;;;;;;
2023/02/19 03:59:42;;;;;;;2.2;1.6;;;;;;;;;;;;;
2023/02/19 04:02:44;;;;;;;2.6;1.9;;;;;;;4.64;84.31934;940.4805;;;;
2023/02/19 04:11:17;;;;;;;1.9;1.7;;;;;;;4.65;84.5;940.4587;;;;
2023/02/19 04:13:45;;;;;;;3.5;1.8;;;;;;;4.83;83.60156;940.6122;;;;
2023/02/19 04:16:13;;;;;;;2.7;2.2;;;;;;;4.84;83.43262;940.5729;;;;
2023/02/19 04:18:39;;;;;;;3.6;2;;;;;;;4.83;83.49902;940.5078;;;;
2023/02/19 04:21:04;;;;;;;2.1;1.9;;;;;;;4.86;82.54785;940.64;;;;
2023/02/19 04:23:33;;;;;;;2.6;2.1;;;;;;;4.93;82.37988;940.7004;;;;
2023/02/19 04:25:58;;;;;;;2.4;1.9;;;;;;;4.97;82.52246;940.6293;;;;
2023/02/19 04:28:23;;;;;;;2.8;2.2;;;;;;;4.8;83.06543;940.6825;;;;
2023/02/19 04:30:48;;;;;;;3.4;2;;;;;;;4.73;83.71582;940.6509;;;;
2023/02/19 04:33:15;;;;;;;3.2;1.9;;;;;;;4.88;83.34082;940.5711;;;;
2023/02/19 04:35:41;;;;;;;2;1.6;;;;;;;4.81;83.40527;940.8038;;;;
2023/02/19 04:38:11;;;;;;;5;2.2;;;;;;;4.91;83.53711;940.6693;;;;
2023/02/19 04:43:45;;;;;;;2.1;1.8;;;;;;;5.04;83.12207;940.7693;;;;
2023/02/19 04:46:10;;;;;;;3.2;1.9;;;;;;;4.99;83.31445;940.8225;;;;
2023/02/19 04:48:38;;;;;;;2.5;1.8;;;;;;;4.93;83.95801;940.9366;;;;
2023/02/19 04:51:43;;;;;;;3.3;2.1;;;;;;;4.98;84.02441;940.7512;;;;
2023/02/19 04:54:11;;;;;;;3.2;2;;;;;;;5.07;84.41309;940.8358;;;;
2023/02/19 04:56:36;;;;;;;3.2;2;;;;;;;;;;;;;
2023/02/19 04:59:03;;;;;;;2.2;1.8;;;;;;;;;;;;;
2023/02/19 05:01:28;;;;;;;3.1;2.1;;;;;;;;;;;;;
2023/02/19 05:03:56;;;;;;;2.4;1.8;;;;;;;;;;;;;
2023/02/19 05:06:21;;;;;;;2.1;1.9;;;;;;;;;;;;;
2023/02/19 05:08:48;;;;;;;3.1;2;;;;;;;;;;;;;
2023/02/19 05:11:14;;;;;;;3.6;2.2;;;;;;;;;;;;;
2023/02/19 05:13:39;;;;;;;2.2;1.9;;;;;;;;;;;;;
2023/02/19 05:16:06;;;;;;;5.4;4.9;;;;;;;;;;;;;
2023/02/19 05:18:31;;;;;;;4;2.5;;;;;;;;;;;;;
2023/02/19 05:20:58;;;;;;;5.1;4.6;;;;;;;;;;;;;
2023/02/19 05:23:23;;;;;;;3.7;2;;;;;;;;;;;;;
2023/02/19 05:25:49;;;;;;;4;2.2;;;;;;;;;;;;;
2023/02/19 05:28:20;;;;;;;2.1;1.9;;;;;;;;;;;;;
2023/02/19 05:30:39;;;;;;;2.3;2.1;;;;;;;;;;;;;
2023/02/19 05:33:06;;;;;;;2.3;2;;;;;;;;;;;;;
2023/02/19 05:35:31;;;;;;;2.6;2;;;;;;;;;;;;;
2023/02/19 05:37:57;;;;;;;2.2;1.8;;;;;;;;;;;;;
2023/02/19 05:40:22;;;;;;;4.7;2;;;;;;;;;;;;;
2023/02/19 05:42:48;;;;;;;2.4;2;;;;;;;;;;;;;
2023/02/19 05:45:13;;;;;;;3.4;2.2;;;;;;;;;;;;;
2023/02/19 05:47:56;;;;;;;2.6;1.9;;;;;;;;;;;;;
2023/02/19 05:50:22;;;;;;;2.4;2;;;;;;;;;;;;;
2023/02/19 05:52:47;;;;;;;2.9;2.1;;;;;;;;;;;;;
2023/02/19 05:55:20;;;;;;;2.7;1.9;;;;;;;;;;;;;
2023/02/19 05:57:45;;;;;;;2.9;2.3;;;;;;;;;;;;;
2023/02/19 06:00:11;;;;;;;2.7;2.2;;;;;;;;;;;;;
2023/02/19 06:02:36;;;;;;;3.1;2.4;;;;;;;;;;;;;
2023/02/19 06:05:02;;;;;;;14;12.8;;;;;;;;;;;;;
2023/02/19 06:07:27;;;;;;;3.5;2.7;;;;;;;;;;;;;
2023/02/19 06:09:53;;;;;;;3.1;2.5;;;;;;;;;;;;;
2023/02/19 06:12:18;;;;;;;3.1;2.7;;;;;;;;;;;;;
2023/02/19 06:14:45;;;;;;;3.3;2.5;;;;;;;;;;;;;
2023/02/19 06:17:10;;;;;;;2.7;2;;;;;;;;;;;;;
2023/02/19 06:19:36;;;;;;;3.2;2.3;;;;;;;;;;;;;
2023/02/19 06:22:05;;;;;;;3.5;2.4;;;;;;;;;;;;;
2023/02/19 06:24:30;;;;;;;2.6;2.1;;;;;;;;;;;;;
2023/02/19 06:26:55;;;;;;;2.3;2.1;;;;;;;;;;;;;
2023/02/19 06:29:20;;;;;;;3.6;2.4;;;;;;;;;;;;;
2023/02/19 06:31:46;;;;;;;4;2.7;;;;;;;;;;;;;
2023/02/19 06:34:11;;;;;;;2.4;1.9;;;;;;;;;;;;;
2023/02/19 06:36:40;;;;;;;3.1;2;;;;;;;;;;;;;
2023/02/19 06:39:07;;;;;;;3;2.5;;;;;;;;;;;;;
2023/02/19 06:41:32;;;;;;;2.9;2.4;;;;;;;;;;;;;
2023/02/19 06:44:01;;;;;;;3;2.4;;;;;;;;;;;;;
2023/02/19 06:46:26;;;;;;;2.8;1.8;;;;;;;;;;;;;
2023/02/19 06:48:53;;;;;;;1.8;1.6;;;;;;;;;;;;;
2023/02/19 06:51:22;;;;;;;3.9;2.7;;;;;;;;;;;;;
2023/02/19 06:53:43;;;;;;;2.8;2.4;;;;;;;;;;;;;
2023/02/19 06:56:09;;;;;;;2.6;2.4;;;;;;;;;;;;;
2023/02/19 06:58:34;;;;;;;2.7;2.3;;;;;;;;;;;;;
2023/02/19 07:01:00;;;;;;;1.5;1.4;;;;;;;;;;;;;
2023/02/19 07:05:51;;;;;;;2.3;2.1;;;;;;;;;;;;;
2023/02/19 07:08:17;;;;;;;2.1;1.9;;;;;;;;;;;;;
2023/02/19 07:10:42;;;;;;;1.5;0.9;;;;;;;;;;;;;
2023/02/19 07:13:09;;;;;;;1;0.9;;;;;;;;;;;;;
2023/02/19 07:15:34;;;;;;;0.8;0.8;;;;;;;;;;;;;
2023/02/19 07:18:00;;;;;;;0.9;0.7;;;;;;;;;;;;;
2023/02/19 07:20:25;;;;;;;1.3;0.6;;;;;;;;;;;;;
2023/02/19 07:22:51;;;;;;;0.9;0.5;;;;;;;;;;;;;
2023/02/19 07:25:16;;;;;;;0.4;0.4;;;;;;;;;;;;;
2023/02/19 07:27:44;;;;;;;0.5;0.5;;;;;;;;;;;;;
2023/02/19 07:30:09;;;;;;;0.6;0.6;;;;;;;;;;;;;
2023/02/19 07:32:35;;;;;;;0.7;0.4;;;;;;;;;;;;;
2023/02/19 07:34:59;;;;;;;0.4;0.4;;;;;;;;;;;;;
2023/02/19 07:37:26;;;;;;;0.5;0.4;;;;;;;;;;;;;
2023/02/19 07:39:51;;;;;;;1.1;0.4;;;;;;;;;;;;;
2023/02/19 07:42:17;;;;;;;1.4;1.3;;;;;;;;;;;;;
2023/02/19 07:44:42;;;;;;;1;0.5;;;;;;;;;;;;;
2023/02/19 07:47:07;;;;;;;0.7;0.4;;;;;;;;;;;;;
2023/02/19 07:49:33;;;;;;;0.5;0.5;;;;;;;;;;;;;
2023/02/19 07:51:58;;;;;;;0.5;0.5;;;;;;;;;;;;;
2023/02/19 07:54:25;;;;;;;0.4;0.4;;;;;;;;;;;;;
2023/02/19 07:56:50;;;;;;;0.3;0.3;;;;;;;;;;;;;
2023/02/19 07:59:18;;;;;;;0.3;0.3;;;;;;;;;;;;;
2023/02/19 08:04:05;;;;;;;0.3;0.3;;;;;;;;;;;;;
2023/02/19 08:06:32;;;;;;;0.4;0.4;;;;;;;;;;;;;
2023/02/19 08:08:58;;;;;;;0.6;0.4;;;;;;;;;;;;;
2023/02/19 08:13:48;;;;;;;0.3;0.3;;;;;;;;;;;;;
2023/02/19 08:16:18;;;;;;;0.4;0.4;;;;;;;;;;;;;
2023/02/19 08:18:42;;;;;;;0.4;0.4;;;;;;;;;;;;;
2023/02/19 08:21:07;;;;;;;0.3;0.2;;;;;;;;;;;;;
2023/02/19 08:23:32;;;;;;;0.4;0.4;;;;;;;;;;;;;
2023/02/19 08:25:57;;;;;;;0.4;0.4;;;;;;;;;;;;;
2023/02/19 08:28:23;;;;;;;0.4;0.4;;;;;;;;;;;;;
2023/02/19 08:30:50;;;;;;;0.4;0.4;;;;;;;;;;;;;
2023/02/19 08:33:16;;;;;;;0.4;0.4;;;;;;;;;;;;;
2023/02/19 08:35:42;;;;;;;0.4;0.4;;;;;;;;;;;;;
2023/02/19 08:38:07;;;;;;;1;0.4;;;;;;;;;;;;;
2023/02/19 08:40:34;;;;;;;6.3;0.8;;;;;;;;;;;;;
2023/02/19 08:42:59;;;;;;;1.4;0.7;;;;;;;;;;;;;
2023/02/19 08:45:27;;;;;;;1.7;0.4;;;;;;;;;;;;;
2023/02/19 08:47:56;;;;;;;0.4;0.4;;;;;;;;;;;;;
2023/02/19 08:50:21;;;;;;;0.2;0.2;;;;;;;;;;;;;
2023/02/19 08:52:48;;;;;;;0.5;0.3;;;;;;;;;;;;;
2023/02/19 08:55:13;;;;;;;0.5;0.4;;;;;;;;;;;;;
2023/02/19 08:57:38;;;;;;;0.3;0.3;;;;;;;;;;;;;
2023/02/19 09:00:04;;;;;;;0.8;0.3;;;;;;;;;;;;;
2023/02/19 09:02:30;;;;;;;1.5;0.6;;;;;;;;;;;;;
2023/02/19 09:04:55;;;;;;;3.3;0.7;;;;;;;;;;;;;
2023/02/19 09:07:21;;;;;;;1.8;1.3;;;;;;;;;;;;;
2023/02/19 09:09:46;;;;;;;2.9;1;;;;;;;;;;;;;
2023/02/19 09:12:12;;;;;;;4.4;1.4;;;;;;;;;;;;;
2023/02/19 09:14:37;;;;;;;5.1;1;;;;;;;;;;;;;
2023/02/19 09:17:03;;;;;;;1.7;0.5;;;;;;;;;;;;;
2023/02/19 09:19:29;;;;;;;1.2;0.7;;;;;;;;;;;;;
2023/02/19 09:21:54;;;;;;;0.8;0.4;;;;;;;;;;;;;
2023/02/19 09:24:19;;;;;;;1.1;0.3;;;;;;;;;;;;;
2023/02/19 09:26:44;;;;;;;1;0.4;;;;;;;;;;;;;
2023/02/19 09:29:10;;;;;;;1.9;0.5;;;;;;;;;;;;;
2023/02/19 09:31:36;;;;;;;1.7;0.4;;;;;;;;;;;;;
2023/02/19 09:34:01;;;;;;;2.8;0.7;;;;;;;;;;;;;
2023/02/19 09:36:27;;;;;;;0.4;0.4;;;;;;;;;;;;;
2023/02/19 09:38:53;;;;;;;1.6;0.6;;;;;;;;;;;;;
2023/02/19 09:41:19;;;;;;;3.4;1;;;;;;;;;;;;;
2023/02/19 09:43:44;;;;;;;0.6;0.6;;;;;;;;;;;;;
2023/02/19 09:46:09;;;;;;;1.4;0.4;;;;;;;;;;;;;
2023/02/19 09:48:34;;;;;;;0.8;0.5;;;;;;;;;;;;;
2023/02/19 09:51:02;;;;;;;0.5;0.4;;;;;;;;;;;;;
2023/02/19 09:53:26;;;;;;;1.1;0.4;;;;;;;;;;;;;
2023/02/19 09:55:53;;;;;;;0.4;0.4;;;;;;;;;;;;;
2023/02/19 09:58:18;;;;;;;0.7;0.5;;;;;;;;;;;;;
2023/02/19 10:00:44;;;;;;;2.5;0.5;;;;;;;;;;;;;
2023/02/19 10:03:09;;;;;;;2.7;1.4;;;;;;;;;;;;;
2023/02/19 10:05:37;;;;;;;0.8;0.4;;;;;;;;;;;;;
2023/02/19 10:08:02;;;;;;;0.8;0.5;;;;;;;;;;;;;
2023/02/19 10:10:27;;;;;;;0.4;0.3;;;;;;;;;;;;;
2023/02/19 10:12:52;;;;;;;0.5;0.4;;;;;;;;;;;;;
2023/02/19 10:15:21;;;;;;;0.4;0.4;;;;;;;;;;;;;
2023/02/19 10:17:46;;;;;;;0.3;0.3;;;;;;;;;;;;;
2023/02/19 10:20:15;;;;;;;1.7;0.7;;;;;;;;;;;;;
2023/02/19 10:22:44;;;;;;;1.1;1;;;;;;;;;;;;;
2023/02/19 10:25:09;;;;;;;0.6;0.5;;;;;;;;;;;;;
2023/02/19 10:27:35;;;;;;;0.6;0.3;;;;;;;;;;;;;
2023/02/19 10:30:00;;;;;;;0.7;0.2;;;;;;;;;;;;;
2023/02/19 10:32:28;;;;;;;0.2;0.2;;;;;;;;;;;;;
2023/02/19 10:34:52;;;;;;;0.2;0.2;;;;;;;;;;;;;
2023/02/19 10:37:18;;;;;;;0.2;0.2;;;;;;;;;;;;;
2023/02/19 10:39:43;;;;;;;0.6;0.3;;;;;;;;;;;;;
2023/02/19 10:42:10;;;;;;;0.6;0.4;;;;;;;;;;;;;
2023/02/19 10:44:35;;;;;;;0.2;0.2;;;;;;;;;;;;;
2023/02/19 10:47:00;;;;;;;0.6;0.4;;;;;;;;;;;;;
2023/02/19 10:49:26;;;;;;;0.3;0.3;;;;;;;;;;;;;
2023/02/19 10:51:52;;;;;;;1;0.9;;;;;;;;;;;;;
2023/02/19 10:54:17;;;;;;;1;0.3;;;;;;;;;;;;;
2023/02/19 10:56:43;;;;;;;1.1;0.2;;;;;;;;;;;;;
2023/02/19 10:59:08;;;;;;;0.3;0.3;;;;;;;;;;;;;
2023/02/19 11:01:36;;;;;;;0.8;0.6;;;;;;;;;;;;;
2023/02/19 11:04:01;;;;;;;0.5;0.2;;;;;;;;;;;;;
2023/02/19 11:06:26;;;;;;;0.6;0.4;;;;;;;;;;;;;
2023/02/19 11:08:53;;;;;;;0.7;0.4;;;;;;;;;;;;;
2023/02/19 11:11:18;;;;;;;0.3;0.3;;;;;;;;;;;;;
2023/02/19 11:13:45;;;;;;;0.3;0.3;;;;;;;;;;;;;
2023/02/19 11:16:09;;;;;;;0.7;0.5;;;;;;;;;;;;;
2023/02/19 11:18:39;;;;;;;1.8;0.4;;;;;;;;;;;;;
2023/02/19 11:21:02;;;;;;;0.5;0.5;;;;;;;;;;;;;
2023/02/19 11:23:28;;;;;;;0.6;0.5;;;;;;;;;;;;;
2023/02/19 11:25:56;;;;;;;0.9;0.6;;;;;;;;;;;;;
2023/02/19 11:28:19;;;;;;;17.2;10.4;;;;;;;;;;;;;
2023/02/19 11:30:46;;;;;;;1.2;1;;;;;;;;;;;;;
2023/02/19 11:33:11;;;;;;;0.8;0.5;;;;;;;;;;;;;
2023/02/19 11:35:36;;;;;;;0.8;0.6;;;;;;;;;;;;;
2023/02/19 11:38:02;;;;;;;1.9;0.4;;;;;;;;;;;;;
2023/02/19 11:40:27;;;;;;;0.3;0.3;;;;;;;;;;;;;
2023/02/19 11:42:53;;;;;;;0.8;0.3;;;;;;;;;;;;;
2023/02/19 11:45:18;;;;;;;5.2;1;;;;;;;;;;;;;
2023/02/19 11:47:43;;;;;;;1.6;0.4;;;;;;;;;;;;;
2023/02/19 11:50:11;;;;;;;1;0.3;;;;;;;;;;;;;
2023/02/19 11:52:37;;;;;;;0.4;0.2;;;;;;;;;;;;;
2023/02/19 11:55:02;;;;;;;0.4;0.3;;;;;;;;;;;;;
2023/02/19 11:57:27;;;;;;;0.4;0.2;;;;;;;;;;;;;
2023/02/19 11:59:52;;;;;;;0.7;0.1;;;;;;;;;;;;;
2023/02/19 12:02:18;;;;;;;0.2;0.2;;;;;;;;;;;;;
2023/02/19 12:04:45;;;;;;;0.4;0.3;;;;;;;;;;;;;
2023/02/19 12:07:10;;;;;;;0.8;0.6;;;;;;;;;;;;;
2023/02/19 12:09:35;;;;;;;0.1;0.1;;;;;;;;;;;;;
2023/02/19 12:12:04;;;;;;;0.2;0.2;;;;;;;;;;;;;
2023/02/19 12:14:29;;;;;;;0.2;0.2;;;;;;;;;;;;;
2023/02/19 12:16:55;;;;;;;0.3;0.3;;;;;;;;;;;;;
2023/02/19 12:19:20;;;;;;;1;0.4;;;;;;;;;;;;;
2023/02/19 12:21:45;;;;;;;7.1;1;;;;;;;;;;;;;
2023/02/19 12:24:10;;;;;;;1;0.3;;;;;;;;;;;;;
2023/02/19 12:26:36;;;;;;;0.2;0.2;;;;;;;;;;;;;
2023/02/19 12:29:03;;;;;;;0.3;0.3;;;;;;;;;;;;;
2023/02/19 12:31:30;;;;;;;0.7;0.3;;;;;;;;;;;;;
2023/02/19 12:33:55;;;;;;;0.3;0.1;;;;;;;;;;;;;
2023/02/19 12:36:22;;;;;;;0.7;0.2;;;;;;;;;;;;;
2023/02/19 12:38:47;;;;;;;0.2;0.2;;;;;;;;;;;;;
2023/02/19 12:41:13;;;;;;;0.1;0.1;;;;;;;;;;;;;
2023/02/19 12:43:37;;;;;;;0.2;0.2;;;;;;;;;;;;;
2023/02/19 12:46:03;;;;;;;0.4;0.2;;;;;;;;;;;;;
2023/02/19 12:48:29;;;;;;;3.5;1;;;;;;;;;;;;;
2023/02/19 12:50:54;;;;;;;1.7;0.6;;;;;;;;;;;;;
2023/02/19 12:53:22;;;;;;;0.3;0.3;;;;;;;;;;;;;
2023/02/19 12:55:47;;;;;;;0.3;0.2;;;;;;;;;;;;;
2023/02/19 12:58:12;;;;;;;0.4;0.4;;;;;;;;;;;;;
2023/02/19 13:01:25;;;;;;;0.2;0.2;;;;;;;;;;;;;
2023/02/19 13:03:38;;;;;;;1.7;1.6;;;;;;;;;;;;;
2023/02/19 13:06:03;;;;;;;0.6;0.3;;;;;;;;;;;;;
2023/02/19 13:08:31;;;;;;;0.4;0.2;;;;;;;;;;;;;
2023/02/19 13:10:54;;;;;;;0.3;0.3;;;;;;;;;;;;;
2023/02/19 13:13:20;;;;;;;0.3;0.3;;;;;;;;;;;;;
2023/02/19 13:15:45;;;;;;;0.8;0.5;;;;;;;;;;;;;
2023/02/19 13:18:12;;;;;;;0.8;0.4;;;;;;;;;;;;;
2023/02/19 13:20:37;;;;;;;0.4;0.4;;;;;;;;;;;;;
2023/02/19 13:25:29;;;;;;;1.8;1.1;;;;;;;;;;;;;
2023/02/19 13:27:54;;;;;;;0.2;0.2;;;;;;;;;;;;;
2023/02/19 13:30:23;;;;;;;0.3;0.3;;;;;;;;;;;;;
2023/02/19 13:32:48;;;;;;;0.3;0.3;;;;;;;;;;;;;
2023/02/19 13:35:15;;;;;;;0.3;0.3;;;;;;;;;;;;;
2023/02/19 13:37:39;;;;;;;0.2;0.2;;;;;;;;;;;;;
2023/02/19 13:40:08;;;;;;;0.6;0.4;;;;;;;;;;;;;
2023/02/19 13:42:33;;;;;;;2.1;0.7;;;;;;;;;;;;;
2023/02/19 13:44:58;;;;;;;0.5;0.5;;;;;;;;;;;;;
2023/02/19 13:47:23;;;;;;;0.7;0.5;;;;;;;;;;;;;
2023/02/19 13:49:48;;;;;;;0.3;0.3;;;;;;;;;;;;;
2023/02/19 13:52:14;;;;;;;0.4;0.3;;;;;;;;;;;;;
2023/02/19 13:54:40;;;;;;;0.5;0.3;;;;;;;;;;;;;
2023/02/19 13:57:04;;;;;;;0.5;0.5;;;;;;;;;;;;;
2023/02/19 13:59:32;;;;;;;1.4;0.6;;;;;;;;;;;;;
2023/02/19 14:01:59;;;;;;;0.4;0.4;;;;;;;;;;;;;
2023/02/19 14:04:23;;;;;;;1.1;0.5;;;;;;;;;;;;;
2023/02/19 14:06:49;;;;;;;0.4;0.4;;;;;;;;;;;;;
2023/02/19 14:09:15;;;;;;;2.3;0.7;;;;;;;;;;;;;
2023/02/19 14:11:40;;;;;;;1.8;0.6;;;;;;;;;;;;;
2023/02/19 14:14:09;;;;;;;3.5;1.9;;;;;;;;;;;;;
2023/02/19 14:16:33;;;;;;;2.2;1.4;;;;;;;;;;;;;
2023/02/19 14:19:02;;;;;;;1;0.9;;;;;;;;;;;;;
2023/02/19 14:21:27;;;;;;;3.3;0.7;;;;;;;;;;;;;
2023/02/19 14:23:52;;;;;;;0.4;0.4;;;;;;;;;;;;;
2023/02/19 14:26:18;;;;;;;1.7;1.4;;;;;;;;;;;;;
2023/02/19 14:28:42;;;;;;;2.6;0.7;;;;;;;;;;;;;
2023/02/19 14:31:08;;;;;;;0.6;0.5;;;;;;;;;;;;;
2023/02/19 14:33:33;;;;;;;0.5;0.5;;;;;;;;;;;;;
2023/02/19 14:35:59;;;;;;;1;0.9;;;;;;;;;;;;;
2023/02/19 14:38:24;;;;;;;0.8;0.7;;;;;;;;;;;;;
2023/02/19 14:40:51;;;;;;;0.8;0.6;;;;;;;;;;;;;
2023/02/19 14:43:16;;;;;;;0.7;0.5;;;;;;;;;;;;;
2023/02/19 14:45:41;;;;;;;0.9;0.6;;;;;;;;;;;;;
2023/02/19 14:48:06;;;;;;;0.6;0.6;;;;;;;;;;;;;
2023/02/19 14:50:32;;;;;;;1.4;0.6;;;;;;;;;;;;;
2023/02/19 14:52:56;;;;;;;0.7;0.7;;;;;;;;;;;;;
2023/02/19 14:55:23;;;;;;;0.8;0.5;;;;;;;;;;;;;
2023/02/19 14:57:48;;;;;;;2.5;0.8;;;;;;;;;;;;;
2023/02/19 15:00:16;;;;;;;1.2;0.7;;;;;;;;;;;;;
2023/02/19 15:02:41;;;;;;;1.2;0.7;;;;;;;;;;;;;
2023/02/19 15:05:11;;;;;;;1.2;0.6;;;;;;;;;;;;;
2023/02/19 15:07:36;;;;;;;0.5;0.5;;;;;;;;;;;;;
2023/02/19 15:10:02;;;;;;;1.6;0.7;;;;;;;;;;;;;
2023/02/19 15:12:26;;;;;;;0.4;0.4;;;;;;;;;;;;;
2023/02/19 15:14:51;;;;;;;1.5;0.6;;;;;;;;;;;;;
2023/02/19 15:17:16;;;;;;;2.1;0.6;;;;;;;;;;;;;
2023/02/19 15:19:41;;;;;;;1;0.6;;;;;;;;;;;;;
2023/02/19 15:22:06;;;;;;;0.7;0.6;;;;;;;;;;;;;
2023/02/19 15:24:32;;;;;;;0.9;0.6;;;;;;;;;;;;;
2023/02/19 15:27:01;;;;;;;0.8;0.6;;;;;;;;;;;;;
2023/02/19 15:29:28;;;;;;;0.8;0.5;;;;;;;;;;;;;
2023/02/19 15:31:53;;;;;;;0.5;0.5;;;;;;;;;;;;;
2023/02/19 15:34:18;;;;;;;1;0.5;;;;;;;;;;;;;
2023/02/19 15:36:44;;;;;;;0.5;0.5;;;;;;;;;;;;;
2023/02/19 15:39:09;;;;;;;0.6;0.5;;;;;;;;;;;;;
2023/02/19 15:41:36;;;;;;;0.8;0.7;;;;;;;;;;;;;
2023/02/19 15:44:00;;;;;;;0.6;0.6;;;;;;;;;;;;;
2023/02/19 15:46:28;;;;;;;0.6;0.6;;;;;;;;;;;;;
2023/02/19 15:48:53;;;;;;;0.7;0.5;;;;;;;;;;;;;
2023/02/19 15:51:20;;;;;;;0.6;0.5;;;;;;;;;;;;;
2023/02/19 15:53:45;;;;;;;0.8;0.5;;;;;;;;;;;;;
2023/02/19 15:56:10;;;;;;;0.6;0.6;;;;;;;;;;;;;
2023/02/19 15:58:35;;;;;;;0.5;0.5;;;;;;;;;;;;;
2023/02/19 16:01:02;;;;;;;0.4;0.4;;;;;;;;;;;;;
2023/02/19 16:03:27;;;;;;;0.9;0.5;;;;;;;;;;;;;
2023/02/19 16:05:54;;;;;;;2;0.8;;;;;;;;;;;;;
2023/02/19 16:08:22;;;;;;;0.6;0.5;;;;;;;;;;;;;
2023/02/19 16:10:46;;;;;;;0.6;0.6;;;;;;;;;;;;;
2023/02/19 16:13:11;;;;;;;0.7;0.5;;;;;;;;;;;;;
2023/02/19 16:15:36;;;;;;;2.4;1;;;;;;;;;;;;;
2023/02/19 16:18:02;;;;;;;1;0.6;;;;;;;;;;;;;
2023/02/19 16:20:27;;;;;;;0.6;0.6;;;;;;;;;;;;;
2023/02/19 16:22:52;;;;;;;0.5;0.5;;;;;;;;;;;;;
2023/02/19 16:25:17;;;;;;;0.3;0.3;;;;;;;;;;;;;
2023/02/19 16:27:43;;;;;;;0.3;0.3;;;;;;;;;;;;;
2023/02/19 16:30:08;;;;;;;0.6;0.6;;;;;;;;;;;;;
2023/02/19 16:32:36;;;;;;;0.6;0.6;;;;;;;;;;;;;
2023/02/19 16:35:02;;;;;;;0.5;0.5;;;;;;;;;;;;;
2023/02/19 16:37:27;;;;;;;6.3;3.1;;;;;;;;;;;;;
2023/02/19 16:39:52;;;;;;;0.3;0.3;;;;;;;;;;;;;
2023/02/19 16:42:18;;;;;;;0.6;0.6;;;;;;;;;;;;;
2023/02/19 16:44:42;;;;;;;0.4;0.4;;;;;;;;;;;;;
2023/02/19 16:47:07;;;;;;;0.5;0.5;;;;;;;;;;;;;
2023/02/19 16:49:34;;;;;;;2.6;1.7;;;;;;;;;;;;;
2023/02/19 16:51:59;;;;;;;2.6;1.7;;;;;;;;;;;;;
2023/02/19 16:54:24;;;;;;;6.5;3.7;;;;;;;;;;;;;
2023/02/19 16:56:49;;;;;;;5;2.8;;;;;;;;;;;;;
2023/02/19 16:59:15;;;;;;;2.6;1.9;;;;;;;;;;;;;
2023/02/19 17:01:45;;;;;;;0.5;0.5;;;;;;;;;;;;;
2023/02/19 17:04:10;;;;;;;4.6;1.4;;;;;;;;;;;;;
2023/02/19 17:06:36;;;;;;;3.7;2.2;;;;;;;;;;;;;
2023/02/19 17:09:01;;;;;;;0.7;0.7;;;;;;;;;;;;;
2023/02/19 17:11:31;;;;;;;1.5;1.1;;;;;;;;;;;;;
2023/02/19 17:13:54;;;;;;;1.8;1.6;;;;;;;;;;;;;
2023/02/19 17:16:19;;;;;;;2.2;1.4;;;;;;;;;;;;;
2023/02/19 17:18:49;;;;;;;1.3;1.1;;;;;;;;;;;;;
2023/02/19 17:21:16;;;;;;;1.8;1.4;;;;;;;;;;;;;
2023/02/19 17:23:41;;;;;;;3.4;1.3;;;;;;;;;;;;;
2023/02/19 17:26:07;;;;;;;1.8;1.1;;;;;;;;;;;;;
2023/02/19 17:28:32;;;;;;;0.7;0.6;;;;;;;;;;;;;
2023/02/19 17:30:57;;;;;;;1.1;0.5;;;;;;;;;;;;;
2023/02/19 17:33:23;;;;;;;1;0.6;;;;;;;;;;;;;
2023/02/19 17:35:48;;;;;;;2.8;2;;;;;;;;;;;;;
2023/02/19 17:38:13;;;;;;;2.6;1.6;;;;;;;;;;;;;
2023/02/19 17:40:39;;;;;;;1.4;1;;;;;;;;;;;;;
2023/02/19 17:43:04;;;;;;;2.1;1.6;;;;;;;;;;;;;
2023/02/19 17:45:29;;;;;;;23.6;14.2;;;;;;;;;;;;;
2023/02/19 17:47:55;;;;;;;9.4;5;;;;;;;;;;;;;
2023/02/19 17:50:20;;;;;;;2.1;1.9;;;;;;;;;;;;;
2023/02/19 17:52:45;;;;;;;5.9;3.3;;;;;;;;;;;;;
2023/02/19 17:55:10;;;;;;;7.2;5.1;;;;;;;;;;;;;
2023/02/19 17:57:38;;;;;;;2.7;1.9;;;;;;;;;;;;;
2023/02/19 18:00:03;;;;;;;2.2;1.7;;;;;;;;;;;;;
2023/02/19 18:02:29;;;;;;;0.9;0.8;;;;;;;;;;;;;
2023/02/19 18:04:54;;;;;;;2.9;1.9;;;;;;;;;;;;;
2023/02/19 18:07:19;;;;;;;8.1;5.6;;;;;;;;;;;;;
2023/02/19 18:09:45;;;;;;;1.2;1.1;;;;;;;;;;;;;
2023/02/19 18:12:10;;;;;;;2.8;1.9;;;;;;;;;;;;;
2023/02/19 18:14:35;;;;;;;0.6;0.6;;;;;;;;;;;;;
2023/02/19 18:17:04;;;;;;;1.1;0.9;;;;;;;;;;;;;
2023/02/19 18:19:29;;;;;;;0.4;0.4;;;;;;;;;;;;;
2023/02/19 18:21:54;;;;;;;0.5;0.5;;;;;;;;;;;;;
2023/02/19 18:24:20;;;;;;;0.5;0.3;;;;;;;;;;;;;
2023/02/19 18:26:45;;;;;;;0.5;0.5;;;;;;;;;;;;;
2023/02/19 18:29:10;;;;;;;1;0.7;;;;;;;;;;;;;
2023/02/19 18:31:36;;;;;;;1.6;1.4;;;;;;;;;;;;;
2023/02/19 18:34:01;;;;;;;2.1;1.4;;;;;;;;;;;;;
2023/02/19 18:36:26;;;;;;;0.6;0.6;;;;;;;;;;;;;
2023/02/19 18:38:53;;;;;;;1.8;1.3;;;;;;;;;;;;;
2023/02/19 18:41:19;;;;;;;1.8;1.2;;;;;;;;;;;;;
2023/02/19 18:43:45;;;;;;;1.1;0.5;;;;;;;;;;;;;
2023/02/19 18:46:10;;;;;;;1.1;0.8;;;;;;;;;;;;;
2023/02/19 18:48:36;;;;;;;2.2;1.1;;;;;;;;;;;;;
2023/02/19 18:51:00;;;;;;;1.7;1.1;;;;;;;;;;;;;
2023/02/19 18:53:26;;;;;;;1.8;1.2;;;;;;;;;;;;;
2023/02/19 18:55:51;;;;;;;1.8;1.3;;;;;;;;;;;;;
2023/02/19 18:58:20;;;;;;;5.3;3;;;;;;;;;;;;;
2023/02/19 19:00:45;;;;;;;1.4;1;;;;;;;;;;;;;
2023/02/19 19:03:11;;;;;;;1.1;1;;;;;;;;;;;;;
2023/02/19 19:05:44;;;;;;;1.3;0.9;;;;;;;;;;;;;
2023/02/19 19:08:09;;;;;;;2.3;0.8;;;;;;;;;;;;;
2023/02/19 19:10:34;;;;;;;1.5;0.7;;;;;;;;;;;;;
2023/02/19 19:13:00;;;;;;;1.1;1;;;;;;;;;;;;;
2023/02/19 19:15:25;;;;;;;1.4;1.3;;;;;;;;;;;;;
2023/02/19 19:17:54;;;;;;;1.2;1;;;;;;;;;;;;;
2023/02/19 19:20:19;;;;;;;1.5;1.3;;;;;;;;;;;;;
2023/02/19 19:22:44;;;;;;;4.8;3.7;;;;;;;;;;;;;
2023/02/19 19:25:09;;;;;;;2.1;1.5;;;;;;;;;;;;;
2023/02/19 19:27:36;;;;;;;1.1;0.9;;;;;;;;;;;;;
2023/02/19 19:30:01;;;;;;;2.6;2.1;;;;;;;;;;;;;
2023/02/19 19:32:27;;;;;;;2.2;1.9;;;;;;;;;;;;;
2023/02/19 19:34:52;;;;;;;2.4;1.4;;;;;;;;;;;;;
2023/02/19 19:37:18;;;;;;;1.5;1.1;;;;;;;;;;;;;
2023/02/19 19:39:44;;;;;;;1.8;1.7;;;;;;;;;;;;;
2023/02/19 19:42:12;;;;;;;2.7;1.8;;;;;;;;;;;;;
2023/02/19 19:44:37;;;;;;;2;1.6;;;;;;;;;;;;;
2023/02/19 19:47:06;;;;;;;1.5;1.4;;;;;;;;;;;;;
2023/02/19 19:49:32;;;;;;;1.8;1.3;;;;;;;;;;;;;
2023/02/19 19:51:59;;;;;;;1.3;1.2;;;;;;;;;;;;;
2023/02/19 19:54:22;;;;;;;2.2;1.3;;;;;;;;;;;;;
2023/02/19 19:56:49;;;;;;;2.3;2;;;;;;;;;;;;;
2023/02/19 19:59:14;;;;;;;2.3;1.9;;;;;;;;;;;;;
2023/02/19 20:01:41;;;;;;;2.2;1.8;;;;;;;;;;;;;
2023/02/19 20:04:06;;;;;;;3.7;2.2;;;;;;;;;;;;;
2023/02/19 20:06:31;;;;;;;1.8;1.5;;;;;;;;;;;;;
2023/02/19 20:08:56;;;;;;;2.7;1.9;;;;;;;;;;;;;
2023/02/19 20:11:23;;;;;;;2.6;1.8;;;;;;;;;;;;;
2023/02/19 20:13:48;;;;;;;2.5;1.7;;;;;;;;;;;;;
2023/02/19 20:16:15;;;;;;;1.3;1.2;;;;;;;;;;;;;
2023/02/19 20:18:40;;;;;;;1.4;1.2;;;;;;;;;;;;;
2023/02/19 20:21:05;;;;;;;1.6;1.2;;;;;;;;;;;;;
2023/02/19 20:23:30;;;;;;;1.5;1.4;;;;;;;;;;;;;
2023/02/19 20:25:56;;;;;;;1.8;1.5;;;;;;;;;;;;;
2023/02/19 20:28:21;;;;;;;1.5;1.2;;;;;;;;;;;;;
2023/02/19 20:30:47;;;;;;;1.2;1.1;;;;;;;;;;;;;
2023/02/19 20:33:12;;;;;;;1.2;1.1;;;;;;;;;;;;;
2023/02/19 20:35:38;;;;;;;1.7;1.3;;;;;;;;;;;;;
2023/02/19 20:38:03;;;;;;;1.6;1.1;;;;;;;;;;;;;
2023/02/19 20:40:31;;;;;;;2.2;1.5;;;;;;;;;;;;;
2023/02/19 21:05:41;;;;;;;1.5;1.1;;;;;;;;;;;;;
2023/02/19 21:08:50;;;;;;;1.1;1;;;;;;;;;;;;;
2023/02/19 21:11:06;;;;;;;1.3;1.1;;;;;;;;;;;;;
2023/02/19 21:13:31;;;;;;;1.4;1.3;;;;;;;;;;;;;
2023/02/19 21:15:58;;;;;;;1.9;1.2;;;;;;;;;;;;;
2023/02/19 21:18:23;;;;;;;1.6;1.3;;;;;;;;;;;;;